Wednesday, October 18, 2017, 6:16 PM EDT
Back to Local

KLWB, Lewisburg / Greenbrier

Location: Frankford, WV, United States Lat: 37.867
Local Time: 6:16 PM EDT (22:16 GMT) Lon: -80.4
Time Zone: US/Eastern Elev: 2303 ft

Show me the last for .
Show Decoded

2017-10-18 17:35 METAR KLWB 182135Z AUTO 13003KT 10SM CLR 18/03 A3031 RMK AO2 T01780031 =
2017-10-18 17:15 METAR KLWB 182115Z AUTO 13004KT 10SM CLR 18/03 A3031 RMK AO2 T01810029 =
2017-10-18 16:55 METAR KLWB 182055Z AUTO 12003KT 10SM CLR 19/03 A3032 RMK AO2 T01860028 =
2017-10-18 16:35 METAR KLWB 182035Z AUTO 13005KT 10SM CLR 19/03 A3032 RMK AO2 T01900026 =
2017-10-18 16:15 METAR KLWB 182015Z AUTO 13004KT 10SM CLR 20/03 A3032 RMK AO2 T01950028 =
2017-10-18 15:55 METAR KLWB 181955Z AUTO 10005KT 10SM CLR 20/03 A3032 RMK AO2 T01970026 =
2017-10-18 15:35 METAR KLWB 181935Z AUTO 19005KT 10SM CLR 20/03 A3032 RMK AO2 T02020029 =
2017-10-18 15:15 METAR KLWB 181915Z AUTO 12004KT 10SM CLR 20/03 A3033 RMK AO2 T02000032 =
2017-10-18 14:55 METAR KLWB 181855Z AUTO 00000KT 10SM CLR 20/03 A3033 RMK AO2 T01980033 =
2017-10-18 14:35 METAR KLWB 181835Z AUTO 14003KT 10SM CLR 19/03 A3033 RMK AO2 T01930028 =
2017-10-18 14:15 METAR KLWB 181815Z AUTO 00000KT 10SM CLR 19/03 A3034 RMK AO2 T01890030 =
2017-10-18 13:55 METAR KLWB 181755Z AUTO 00000KT 10SM CLR 18/03 A3035 RMK AO2 T01830032 10187
                 21002 =
2017-10-18 13:35 METAR KLWB 181735Z AUTO 00000KT 10SM CLR 18/03 A3036 RMK AO2 T01820028 =
2017-10-18 13:15 METAR KLWB 181715Z AUTO 10006KT 10SM CLR 18/04 A3037 RMK AO2 T01820037 =
2017-10-18 12:55 METAR KLWB 181655Z AUTO 13006KT 10SM CLR 17/04 A3038 RMK AO2 T01720040 =
2017-10-18 12:35 METAR KLWB 181635Z AUTO 14004KT 10SM CLR 17/04 A3039 RMK AO2 T01660037 =
2017-10-18 12:15 METAR KLWB 181615Z AUTO 00000KT 10SM CLR 15/05 A3040 RMK AO2 T01530052 =
2017-10-18 11:55 METAR KLWB 181555Z AUTO 00000KT 10SM CLR 14/05 A3040 RMK AO2 T01400051 =
2017-10-18 11:35 METAR KLWB 181535Z AUTO 00000KT 10SM CLR 13/04 A3040 RMK AO2 T01300044 =
2017-10-18 11:15 METAR KLWB 181515Z AUTO 00000KT 10SM CLR 12/05 A3040 RMK AO2 T01160046 =
2017-10-18 10:55 METAR KLWB 181455Z AUTO 00000KT 10SM CLR 11/05 A3040 RMK AO2 T01050048 =
2017-10-18 10:35 METAR KLWB 181435Z AUTO 00000KT 10SM CLR 09/05 A3040 RMK AO2 T00940050 =
2017-10-18 10:15 METAR KLWB 181415Z AUTO 01003KT 10SM CLR 07/04 A3040 RMK AO2 T00740039 =
2017-10-18 09:55 METAR KLWB 181355Z AUTO 03004KT 10SM CLR 06/04 A3040 RMK AO2 T00610035 =
2017-10-18 09:35 METAR KLWB 181335Z AUTO 00000KT 10SM CLR 05/03 A3040 RMK AO2 T00500032 =
2017-10-18 09:15 METAR KLWB 181315Z AUTO 04003KT 10SM CLR 04/02 A3040 RMK AO2 T00350022 =
2017-10-18 08:55 METAR KLWB 181255Z AUTO 03004KT 10SM CLR 03/02 A3040 RMK AO2 T00250016 =
2017-10-18 08:35 METAR KLWB 181235Z AUTO 00000KT 10SM CLR 01/00 A3039 RMK AO2 T00130001 =
2017-10-18 08:15 METAR KLWB 181215Z AUTO 00000KT 10SM CLR 01/00 A3038 RMK AO2 T00080000 =
2017-10-18 07:55 METAR KLWB 181155Z AUTO 00000KT 10SM CLR 00/M01 A3038 RMK AO2 T10041009 10024
                 21008 =
2017-10-18 07:35 METAR KLWB 181135Z AUTO 00000KT 10SM CLR 00/00 A3038 RMK AO2 T00001004 =
2017-10-18 07:15 METAR KLWB 181115Z AUTO 00000KT 10SM CLR 00/00 A3037 RMK AO2 T00001004 =
2017-10-18 06:55 METAR KLWB 181055Z AUTO 00000KT 10SM CLR 00/00 A3037 RMK AO2 T00001005 =
2017-10-18 06:35 METAR KLWB 181035Z AUTO 00000KT 10SM CLR 00/00 A3037 RMK AO2 T00011003 =
2017-10-18 06:15 METAR KLWB 181015Z AUTO 00000KT 10SM CLR 01/00 A3036 RMK AO2 T00050000 =
2017-10-18 05:55 METAR KLWB 180955Z AUTO 00000KT 10SM CLR 01/00 A3035 RMK AO2 T00050000 =
2017-10-18 05:35 METAR KLWB 180935Z AUTO 00000KT 10SM CLR 01/00 A3035 RMK AO2 T00060000 =
2017-10-18 05:15 METAR KLWB 180915Z AUTO 00000KT 10SM CLR 01/00 A3035 RMK AO2 T00080002 =
2017-10-18 04:55 METAR KLWB 180855Z AUTO 00000KT 10SM CLR 02/01 A3035 RMK AO2 T00150006 =
2017-10-18 04:35 METAR KLWB 180835Z AUTO 00000KT 10SM CLR 02/01 A3035 RMK AO2 T00150007 =
2017-10-18 04:15 METAR KLWB 180815Z AUTO 00000KT 10SM CLR 02/01 A3035 RMK AO2 T00170012 =
2017-10-18 03:55 METAR KLWB 180755Z AUTO 00000KT 10SM CLR 01/01 A3034 RMK AO2 T00140007 =
2017-10-18 03:35 METAR KLWB 180735Z AUTO 00000KT 10SM CLR 02/02 A3033 RMK AO2 T00240015 =
2017-10-18 03:15 METAR KLWB 180715Z AUTO 00000KT 10SM CLR 02/01 A3034 RMK AO2 T00230011 =
2017-10-18 02:55 METAR KLWB 180655Z AUTO 00000KT 10SM CLR 02/01 A3035 RMK AO2 T00150005 =
2017-10-18 02:35 METAR KLWB 180635Z AUTO 00000KT 10SM CLR 02/00 A3035 RMK AO2 T00150003 =
2017-10-18 02:15 METAR KLWB 180615Z AUTO 00000KT 10SM CLR 02/01 A3034 RMK AO2 T00220013 =
2017-10-18 01:55 METAR KLWB 180555Z AUTO 00000KT 10SM CLR 02/01 A3035 RMK AO2 T00210009 10109
                 20018 =
2017-10-18 01:35 METAR KLWB 180535Z AUTO 00000KT 10SM CLR 02/01 A3034 RMK AO2 T00220011 =
2017-10-18 01:15 METAR KLWB 180515Z AUTO 00000KT 10SM CLR 02/00 A3033 RMK AO2 T00180004 =
2017-10-18 00:55 METAR KLWB 180455Z AUTO 00000KT 10SM CLR 04/02 A3033 RMK AO2 T00380020 401591010
                 =
2017-10-18 00:35 METAR KLWB 180435Z AUTO 00000KT 10SM CLR 03/01 A3033 RMK AO2 T00300014 =
2017-10-18 00:15 METAR KLWB 180415Z AUTO 00000KT 10SM CLR 04/02 A3033 RMK AO2 T00350019 =
2017-10-17 23:55 METAR KLWB 180355Z AUTO 00000KT 10SM CLR 04/02 A3034 RMK AO2 T00420019 =
2017-10-17 23:35 METAR KLWB 180335Z AUTO 00000KT 10SM CLR 05/02 A3033 RMK AO2 T00520023 =
2017-10-17 23:15 METAR KLWB 180315Z AUTO 00000KT 10SM CLR 05/02 A3034 RMK AO2 T00510022 =
2017-10-17 22:55 METAR KLWB 180255Z AUTO 00000KT 10SM CLR 05/02 A3035 RMK AO2 T00510024 =
2017-10-17 22:35 METAR KLWB 180235Z AUTO 00000KT 10SM CLR 06/03 A3035 RMK AO2 T00610025 =
2017-10-17 22:15 METAR KLWB 180215Z AUTO 00000KT 10SM CLR 06/03 A3034 RMK AO2 T00630025 =
2017-10-17 21:55 METAR KLWB 180155Z AUTO 00000KT 10SM CLR 08/03 A3033 RMK AO2 T00770027 =
2017-10-17 21:35 METAR KLWB 180135Z AUTO 00000KT 10SM CLR 07/02 A3033 RMK AO2 T00690023 =
2017-10-17 21:15 METAR KLWB 180115Z AUTO 00000KT 10SM CLR 06/02 A3033 RMK AO2 T00640020 =
2017-10-17 20:55 METAR KLWB 180055Z AUTO 00000KT 10SM CLR 09/03 A3032 RMK AO2 T00880026 =
2017-10-17 20:35 METAR KLWB 180035Z AUTO 00000KT 10SM CLR 08/03 A3032 RMK AO2 T00810025 =
2017-10-17 20:15 METAR KLWB 180015Z AUTO 00000KT 10SM CLR 11/03 A3032 RMK AO2 T01070031 =
2017-10-17 19:55 METAR KLWB 172355Z AUTO 00000KT 10SM CLR 10/02 A3031 RMK AO2 T01030024 10159
                 20099 =
2017-10-17 19:35 METAR KLWB 172335Z AUTO 00000KT 10SM CLR 12/02 A3031 RMK AO2 T01150024 =
2017-10-17 19:15 METAR KLWB 172315Z AUTO 00000KT 10SM CLR 12/02 A3030 RMK AO2 T01190023 =
2017-10-17 18:55 METAR KLWB 172255Z AUTO 00000KT 10SM CLR 13/03 A3029 RMK AO2 T01270025 =
2017-10-17 18:35 METAR KLWB 172235Z AUTO 00000KT 10SM CLR 13/03 A3029 RMK AO2 T01320025 =

Support USWX by starting your Amazon purchase here.